Time;durP1;ratioP1;P1;durP2;ratioP2;P2;SDS_P1;SDS_P2;PMS_P1;PMS_P2;Temp;Humidity;BMP_temperature;BMP_pressure;BME280_temperature;BME280_humidity;BME280_pressure;Samples;Min_cycle;Max_cycle;Signal;HPM_P1;HPM_P2
2022/03/08 00:02:25;;;;;;;7.80;5.63;;;3.10;99.90;;;;;;5073660;28;20470;-64
2022/03/08 00:04:50;;;;;;;9.30;6.40;;;3.10;99.90;;;;;;5073566;28;20181;-63
2022/03/08 00:07:16;;;;;;;10.47;6.60;;;3.10;99.90;;;;;;5073025;28;20209;-64
2022/03/08 00:09:43;;;;;;;10.07;6.47;;;3.10;99.90;;;;;;5073356;28;20186;-64
2022/03/08 00:12:09;;;;;;;7.93;5.43;;;3.10;99.90;;;;;;5073534;28;20182;-64
2022/03/08 00:14:35;;;;;;;7.90;5.27;;;3.10;99.90;;;;;;5073430;28;20854;-63
2022/03/08 00:17:02;;;;;;;6.60;5.13;;;3.10;99.90;;;;;;5072916;28;20487;-63
2022/03/08 00:19:28;;;;;;;7.30;5.47;;;3.10;99.90;;;;;;5073318;28;20192;-63
2022/03/08 00:21:54;;;;;;;6.80;5.30;;;3.10;99.90;;;;;;5073064;28;20432;-63
2022/03/08 00:24:20;;;;;;;6.90;5.33;;;3.10;99.90;;;;;;5073159;28;20184;-64
2022/03/08 00:26:46;;;;;;;8.90;5.43;;;3.10;99.90;;;;;;5073019;28;20444;-63
2022/03/08 00:29:12;;;;;;;8.97;5.90;;;3.10;99.90;;;;;;5072542;28;20424;-63
2022/03/08 00:31:37;;;;;;;8.03;5.80;;;3.10;99.90;;;;;;5073082;28;20182;-63
2022/03/08 00:34:04;;;;;;;6.00;4.87;;;3.10;99.90;;;;;;5073023;28;20187;-64
2022/03/08 00:36:31;;;;;;;7.37;5.30;;;3.10;99.90;;;;;;5072534;28;20211;-63
2022/03/08 00:38:57;;;;;;;8.50;6.50;;;3.00;99.90;;;;;;5072972;28;20418;-63
2022/03/08 00:41:23;;;;;;;6.80;5.77;;;3.00;99.90;;;;;;5072711;28;20431;-64
2022/03/08 00:43:50;;;;;;;7.60;5.53;;;3.00;99.90;;;;;;5072895;28;20999;-63
2022/03/08 00:46:17;;;;;;;7.73;5.93;;;3.00;99.90;;;;;;5072754;28;20204;-63
2022/03/08 00:48:43;;;;;;;8.87;6.00;;;3.00;99.90;;;;;;5072390;28;20969;-63
2022/03/08 00:51:10;;;;;;;7.87;5.73;;;3.00;99.90;;;;;;5072673;28;20781;-63
2022/03/08 00:53:36;;;;;;;8.80;5.50;;;3.00;99.90;;;;;;5072600;28;20509;-63
2022/03/08 00:56:03;;;;;;;8.13;5.23;;;3.00;99.90;;;;;;5072534;28;20521;-64
2022/03/08 00:58:28;;;;;;;7.73;5.23;;;2.90;99.90;;;;;;5072219;28;20766;-64
2022/03/08 01:00:54;;;;;;;6.60;5.20;;;2.90;99.90;;;;;;5072438;28;20458;-63
2022/03/08 01:03:20;;;;;;;8.23;5.47;;;2.90;99.90;;;;;;5072362;28;20600;-63
2022/03/08 01:05:46;;;;;;;9.00;6.30;;;2.90;99.90;;;;;;5072422;28;20806;-64
2022/03/08 01:08:13;;;;;;;7.47;4.93;;;2.90;99.90;;;;;;5071911;28;20221;-63
2022/03/08 01:10:39;;;;;;;10.07;5.23;;;2.90;99.90;;;;;;5072359;28;20423;-63
2022/03/08 01:13:05;;;;;;;7.97;5.40;;;2.80;99.90;;;;;;5072215;28;20453;-64
2022/03/08 01:15:31;;;;;;;7.77;6.00;;;2.80;99.90;;;;;;5072170;28;20442;-63
2022/03/08 01:17:58;;;;;;;8.00;6.17;;;2.80;99.90;;;;;;5071811;28;20236;-63
2022/03/08 01:20:24;;;;;;;8.37;6.20;;;2.80;99.90;;;;;;5072468;28;20947;-64
2022/03/08 01:22:50;;;;;;;9.63;5.77;;;2.80;99.90;;;;;;5072168;28;20937;-63
2022/03/08 01:25:20;;;;;;;6.80;5.30;;;2.80;99.90;;;;;;5071956;28;20454;-63
2022/03/08 01:27:46;;;;;;;8.80;5.20;;;2.80;99.90;;;;;;5071596;28;20295;-63
2022/03/08 01:30:14;;;;;;;7.10;5.37;;;2.70;99.90;;;;;;5071980;28;20411;-63
2022/03/08 01:32:40;;;;;;;6.13;4.97;;;2.70;99.90;;;;;;5071863;28;20269;-63
2022/03/08 01:35:07;;;;;;;7.00;5.20;;;2.70;99.90;;;;;;5071739;28;20927;-63
2022/03/08 01:37:33;;;;;;;6.10;4.70;;;2.60;99.90;;;;;;5071411;28;20444;-63
2022/03/08 01:39:59;;;;;;;7.83;5.40;;;2.60;99.90;;;;;;5070750;28;20429;-63
2022/03/08 01:42:25;;;;;;;8.03;5.70;;;2.60;99.90;;;;;;5071770;28;20188;-64
2022/03/08 01:44:52;;;;;;;6.70;5.40;;;2.60;99.90;;;;;;5071613;28;20187;-64
2022/03/08 01:47:20;;;;;;;7.33;5.40;;;2.60;99.90;;;;;;5071313;28;20543;-63
2022/03/08 01:49:48;;;;;;;6.20;4.83;;;2.50;99.90;;;;;;5071410;28;20410;-63
2022/03/08 01:52:16;;;;;;;6.90;4.70;;;2.50;99.90;;;;;;5071486;28;20471;-63
2022/03/08 01:54:43;;;;;;;7.03;5.03;;;2.50;99.90;;;;;;5071493;28;20443;-63
2022/03/08 01:57:09;;;;;;;9.60;5.50;;;2.50;99.90;;;;;;5070979;28;20457;-63
2022/03/08 01:59:35;;;;;;;6.40;4.63;;;2.50;99.90;;;;;;5071326;28;20429;-64
2022/03/08 02:02:02;;;;;;;7.97;5.00;;;2.50;99.90;;;;;;5071166;28;20245;-63
2022/03/08 02:04:28;;;;;;;7.13;4.87;;;2.50;99.90;;;;;;5071313;28;20433;-63
2022/03/08 02:06:53;;;;;;;9.13;5.33;;;2.50;99.90;;;;;;5070606;28;20438;-63
2022/03/08 02:09:19;;;;;;;7.33;4.97;;;2.40;99.90;;;;;;5071239;28;20188;-64
2022/03/08 02:11:45;;;;;;;8.47;5.17;;;2.50;99.90;;;;;;5071060;28;20220;-63
2022/03/08 02:14:13;;;;;;;8.40;5.63;;;2.40;99.90;;;;;;5071035;28;20180;-63
2022/03/08 02:16:39;;;;;;;6.47;5.30;;;2.30;99.90;;;;;;5070609;28;20438;-63
2022/03/08 02:19:04;;;;;;;8.33;5.63;;;2.30;99.90;;;;;;5071067;28;20471;-63
2022/03/08 02:21:36;;;;;;;7.20;5.20;;;2.30;99.90;;;;;;5070866;28;20184;-64
2022/03/08 02:24:02;;;;;;;7.17;5.67;;;2.30;99.90;;;;;;5070958;28;20176;-64
2022/03/08 02:26:28;;;;;;;6.43;5.10;;;2.30;99.90;;;;;;5070487;28;20797;-64
2022/03/08 02:28:54;;;;;;;5.70;4.50;;;2.20;99.90;;;;;;5070663;28;20520;-63
2022/03/08 02:31:20;;;;;;;6.83;5.10;;;2.30;99.90;;;;;;5070867;28;20467;-64
2022/03/08 02:33:46;;;;;;;7.50;5.30;;;2.30;99.90;;;;;;5070721;28;20429;-64
2022/03/08 02:36:11;;;;;;;6.30;4.60;;;2.30;99.90;;;;;;5070744;28;20223;-63
2022/03/08 02:38:37;;;;;;;7.07;4.93;;;2.30;99.90;;;;;;5070430;28;20657;-63
2022/03/08 02:41:03;;;;;;;7.30;4.97;;;2.20;99.90;;;;;;5070789;28;20278;-63
2022/03/08 02:43:29;;;;;;;7.13;5.00;;;2.20;99.90;;;;;;5070596;28;20190;-63
2022/03/08 02:45:55;;;;;;;7.30;5.00;;;2.10;99.90;;;;;;5070546;28;20528;-64
2022/03/08 02:48:25;;;;;;;6.83;5.20;;;2.20;99.90;;;;;;5070254;28;20219;-64
2022/03/08 02:50:51;;;;;;;8.70;5.53;;;2.20;99.90;;;;;;5070424;28;20186;-63
2022/03/08 02:53:17;;;;;;;5.87;4.77;;;2.10;99.90;;;;;;5070489;28;20512;-63
2022/03/08 02:55:43;;;;;;;7.00;4.47;;;2.10;99.90;;;;;;5070590;28;20182;-64
2022/03/08 02:58:08;;;;;;;6.47;4.70;;;2.10;99.90;;;;;;5070232;28;20197;-63
2022/03/08 03:00:35;;;;;;;6.07;4.70;;;2.10;99.90;;;;;;5070413;28;20480;-63
2022/03/08 03:03:02;;;;;;;6.37;4.50;;;2.10;99.90;;;;;;5070567;28;20193;-63
2022/03/08 03:05:28;;;;;;;7.17;4.67;;;2.20;99.90;;;;;;5070409;28;20416;-63
2022/03/08 03:07:54;;;;;;;7.20;5.10;;;2.20;99.90;;;;;;5070016;28;20460;-63
2022/03/08 03:10:21;;;;;;;7.20;4.90;;;2.20;99.90;;;;;;5070327;28;20504;-63
2022/03/08 03:12:48;;;;;;;5.77;4.37;;;2.20;99.90;;;;;;5070340;28;20421;-64
2022/03/08 03:15:16;;;;;;;6.23;4.53;;;2.20;99.90;;;;;;5070309;28;20472;-64
2022/03/08 03:17:42;;;;;;;6.53;5.10;;;2.30;99.90;;;;;;5070271;28;20914;-63
2022/03/08 03:20:10;;;;;;;8.90;5.87;;;2.30;99.90;;;;;;5070276;28;20428;-63
2022/03/08 03:22:36;;;;;;;8.13;5.30;;;2.30;99.90;;;;;;5070600;28;20933;-64
2022/03/08 03:25:03;;;;;;;6.20;4.43;;;2.30;99.90;;;;;;5070188;28;20421;-63
2022/03/08 03:27:29;;;;;;;5.33;4.40;;;2.30;99.90;;;;;;5069780;28;20466;-63
2022/03/08 03:29:55;;;;;;;6.10;4.20;;;2.30;99.90;;;;;;5070142;28;20762;-63
2022/03/08 03:32:23;;;;;;;5.90;4.20;;;2.30;99.90;;;;;;5070208;28;20187;-63
2022/03/08 03:34:49;;;;;;;7.27;4.57;;;2.30;99.90;;;;;;5070168;28;20247;-63
2022/03/08 03:37:15;;;;;;;5.87;4.53;;;2.30;99.90;;;;;;5069653;28;20507;-64
2022/03/08 03:39:41;;;;;;;7.30;4.33;;;2.30;99.90;;;;;;5069974;28;20422;-63
2022/03/08 03:42:08;;;;;;;6.43;4.90;;;2.30;99.90;;;;;;5070071;28;20418;-63
2022/03/08 03:44:33;;;;;;;6.23;4.83;;;2.40;99.90;;;;;;5070134;28;20462;-63
2022/03/08 03:46:59;;;;;;;7.17;4.93;;;2.40;99.90;;;;;;5069487;28;20497;-63
2022/03/08 03:49:25;;;;;;;7.10;4.77;;;2.30;99.90;;;;;;5070005;28;20422;-63
2022/03/08 03:51:51;;;;;;;6.80;4.57;;;2.30;99.90;;;;;;5069957;28;20183;-63
2022/03/08 03:54:23;;;;;;;9.60;5.03;;;2.30;99.90;;;;;;5069994;28;20182;-63
2022/03/08 03:56:50;;;;;;;6.30;4.70;;;2.20;99.90;;;;;;5069573;28;20802;-65
2022/03/08 03:59:15;;;;;;;6.93;4.90;;;2.20;99.90;;;;;;5070057;28;20420;-64
2022/03/08 04:01:41;;;;;;;7.40;5.53;;;2.20;99.90;;;;;;5069778;28;20437;-64
2022/03/08 04:04:07;;;;;;;8.30;4.90;;;2.20;99.90;;;;;;5071807;28;20425;-64
2022/03/08 04:06:34;;;;;;;6.70;5.13;;;2.20;99.90;;;;;;5073115;28;20292;-64
2022/03/08 04:09:01;;;;;;;5.83;5.23;;;2.20;99.90;;;;;;5073398;28;20473;-63
2022/03/08 04:11:27;;;;;;;7.30;5.20;;;2.20;99.90;;;;;;5073528;28;20414;-64
2022/03/08 04:13:52;;;;;;;6.93;5.50;;;2.20;99.90;;;;;;5073309;28;20523;-64
2022/03/08 04:16:18;;;;;;;7.17;5.10;;;2.10;99.90;;;;;;5073309;28;20229;-65
2022/03/08 04:18:44;;;;;;;7.67;5.00;;;2.10;99.90;;;;;;5072868;28;20282;-63
2022/03/08 04:21:09;;;;;;;8.37;5.37;;;2.10;99.90;;;;;;5073642;28;20182;-64
2022/03/08 04:23:35;;;;;;;6.47;5.53;;;2.10;99.90;;;;;;5073085;28;20823;-64
2022/03/08 04:26:01;;;;;;;7.60;5.03;;;2.00;99.90;;;;;;5073160;28;20206;-64
2022/03/08 04:28:27;;;;;;;6.63;5.03;;;2.00;99.90;;;;;;5072811;28;20207;-64
2022/03/08 04:30:53;;;;;;;10.57;6.70;;;1.90;99.90;;;;;;5073144;28;20422;-63
2022/03/08 04:33:18;;;;;;;6.77;5.17;;;2.00;99.90;;;;;;5072915;28;20213;-63
2022/03/08 04:35:44;;;;;;;7.73;5.13;;;1.90;99.90;;;;;;5072857;28;20217;-64
2022/03/08 04:38:13;;;;;;;8.17;5.30;;;1.90;99.90;;;;;;5072679;28;20221;-63
2022/03/08 04:40:39;;;;;;;8.27;5.43;;;1.90;99.90;;;;;;5073014;28;20179;-63
2022/03/08 04:43:05;;;;;;;7.00;5.30;;;1.90;99.90;;;;;;5072970;28;20425;-64
2022/03/08 04:45:30;;;;;;;7.30;5.03;;;2.00;99.90;;;;;;5072786;28;20414;-63
2022/03/08 04:47:56;;;;;;;7.60;4.80;;;1.90;99.90;;;;;;5072422;28;20207;-63
2022/03/08 04:50:22;;;;;;;7.17;4.83;;;1.90;99.90;;;;;;5072558;28;20179;-64
2022/03/08 04:52:49;;;;;;;8.07;5.10;;;1.90;99.90;;;;;;5072966;28;20183;-64
2022/03/08 04:55:17;;;;;;;7.90;5.47;;;1.90;99.90;;;;;;5072528;28;20505;-64
2022/03/08 04:57:43;;;;;;;6.83;4.73;;;1.90;99.90;;;;;;5072296;28;20462;-63
2022/03/08 05:00:14;;;;;;;9.70;5.00;;;1.90;99.90;;;;;;5072404;28;21062;-64
2022/03/08 05:02:44;;;;;;;6.10;4.93;;;1.90;99.90;;;;;;5072584;28;20518;-64
2022/03/08 05:05:11;;;;;;;8.23;5.03;;;1.90;99.90;;;;;;5072588;28;20960;-63
2022/03/08 05:07:39;;;;;;;8.60;5.00;;;1.90;99.90;;;;;;5072022;28;21006;-63
2022/03/08 05:10:07;;;;;;;8.93;5.23;;;1.90;99.90;;;;;;5072178;28;20419;-64
2022/03/08 05:12:34;;;;;;;6.07;5.30;;;1.80;99.90;;;;;;5072326;28;20423;-63
2022/03/08 05:15:00;;;;;;;6.97;5.67;;;1.80;99.90;;;;;;5072164;28;20415;-63
2022/03/08 05:17:26;;;;;;;7.40;5.80;;;1.80;99.90;;;;;;5071846;28;20448;-64
2022/03/08 05:19:52;;;;;;;8.87;5.50;;;1.80;99.90;;;;;;5072170;28;20532;-64
2022/03/08 05:22:18;;;;;;;9.50;5.60;;;1.90;99.90;;;;;;5072141;28;20523;-64
2022/03/08 05:24:44;;;;;;;7.20;5.10;;;1.90;99.90;;;;;;5072194;28;20413;-63
2022/03/08 05:27:10;;;;;;;6.60;5.20;;;1.90;99.90;;;;;;5071506;28;20221;-63
2022/03/08 05:29:36;;;;;;;6.33;5.07;;;1.90;99.90;;;;;;5072022;28;20764;-64
2022/03/08 05:32:03;;;;;;;7.60;5.20;;;2.00;99.90;;;;;;5071740;28;20409;-63
2022/03/08 05:34:29;;;;;;;6.43;4.83;;;1.90;99.90;;;;;;5071876;28;20494;-63
2022/03/08 05:36:56;;;;;;;6.60;5.73;;;1.90;99.90;;;;;;5071370;28;20441;-63
2022/03/08 05:39:22;;;;;;;7.70;4.60;;;1.90;99.90;;;;;;5071844;28;20564;-63
2022/03/08 05:41:48;;;;;;;7.70;5.30;;;1.90;99.90;;;;;;5071716;28;20444;-63
2022/03/08 05:44:14;;;;;;;6.40;4.57;;;1.90;99.90;;;;;;5071706;28;20474;-64
2022/03/08 05:46:40;;;;;;;8.43;5.83;;;1.90;99.90;;;;;;5071023;28;20445;-63
2022/03/08 05:49:06;;;;;;;7.37;4.53;;;1.90;99.90;;;;;;5071429;28;20465;-63
2022/03/08 05:51:32;;;;;;;5.90;4.80;;;1.80;99.90;;;;;;5071594;28;20431;-64
2022/03/08 05:53:58;;;;;;;6.93;4.43;;;1.80;99.90;;;;;;5071486;28;20172;-64
2022/03/08 05:56:23;;;;;;;7.00;4.70;;;1.80;99.90;;;;;;5071233;28;20195;-63
2022/03/08 05:58:49;;;;;;;5.87;5.00;;;1.80;99.90;;;;;;5071219;28;20182;-64
2022/03/08 06:01:15;;;;;;;9.27;5.17;;;1.80;99.90;;;;;;5071257;28;20226;-65
2022/03/08 06:03:41;;;;;;;6.87;4.90;;;1.80;99.90;;;;;;5071097;28;20186;-64
2022/03/08 06:06:06;;;;;;;6.27;5.30;;;1.90;99.90;;;;;;5071185;28;20199;-64
2022/03/08 06:08:32;;;;;;;8.20;5.90;;;1.80;99.90;;;;;;5070956;28;20221;-63
2022/03/08 06:10:58;;;;;;;7.17;5.43;;;1.90;99.90;;;;;;5071211;28;20413;-64
2022/03/08 06:13:24;;;;;;;7.63;6.10;;;1.80;99.90;;;;;;5071099;28;20524;-64
2022/03/08 06:15:50;;;;;;;10.33;5.23;;;1.90;99.90;;;;;;5071219;28;20709;-63
2022/03/08 06:18:15;;;;;;;8.27;5.03;;;1.90;99.90;;;;;;5070914;28;20183;-64
2022/03/08 06:20:41;;;;;;;8.07;5.27;;;1.90;99.90;;;;;;5071328;28;20411;-63
2022/03/08 06:23:07;;;;;;;8.40;5.40;;;1.90;99.90;;;;;;5071029;28;20183;-63
2022/03/08 06:25:33;;;;;;;6.27;5.07;;;1.90;99.90;;;;;;5070607;28;20183;-63
2022/03/08 06:27:59;;;;;;;12.97;5.77;;;1.90;99.90;;;;;;5070305;28;20464;-63
2022/03/08 06:30:25;;;;;;;6.57;5.27;;;2.00;99.90;;;;;;5070706;28;20175;-64
2022/03/08 06:32:51;;;;;;;7.90;5.87;;;2.00;99.90;;;;;;5070893;28;20451;-64
2022/03/08 06:35:19;;;;;;;9.07;5.03;;;2.00;99.90;;;;;;5070621;28;20409;-63
2022/03/08 06:37:45;;;;;;;6.83;5.30;;;2.00;99.90;;;;;;5070537;28;20438;-63
2022/03/08 06:40:11;;;;;;;6.03;4.83;;;2.10;99.90;;;;;;5070778;28;20447;-64
2022/03/08 06:42:37;;;;;;;7.00;5.67;;;2.10;99.90;;;;;;5070809;28;20417;-64
2022/03/08 06:45:05;;;;;;;7.97;5.07;;;2.10;99.90;;;;;;5070561;28;20905;-64
2022/03/08 06:47:31;;;;;;;7.57;4.77;;;2.20;99.90;;;;;;5070115;28;20461;-63
2022/03/08 06:49:57;;;;;;;11.23;6.17;;;2.20;99.90;;;;;;5070630;28;20429;-63
2022/03/08 06:52:26;;;;;;;9.13;7.10;;;2.30;99.90;;;;;;5070629;28;20187;-63
2022/03/08 06:54:52;;;;;;;8.07;5.17;;;2.30;99.90;;;;;;5070611;28;20413;-63
2022/03/08 06:57:17;;;;;;;6.70;5.80;;;2.30;99.90;;;;;;5070149;28;20493;-63
2022/03/08 06:59:43;;;;;;;9.20;5.97;;;2.40;99.90;;;;;;5070454;28;20184;-64
2022/03/08 07:02:09;;;;;;;7.43;5.30;;;2.50;99.90;;;;;;5070367;28;20663;-63
2022/03/08 07:04:35;;;;;;;6.47;5.23;;;2.50;99.90;;;;;;5070562;28;20186;-63
2022/03/08 07:07:02;;;;;;;12.10;6.47;;;2.60;99.90;;;;;;5069934;28;20435;-63
2022/03/08 07:09:27;;;;;;;7.00;5.50;;;2.60;99.90;;;;;;5070501;28;20464;-63
2022/03/08 07:11:53;;;;;;;7.37;5.07;;;2.70;99.90;;;;;;5070444;28;20831;-63
2022/03/08 07:14:20;;;;;;;7.10;5.70;;;2.70;99.90;;;;;;5070241;28;20198;-64
2022/03/08 07:16:47;;;;;;;8.63;5.77;;;2.80;99.90;;;;;;5070055;28;20525;-63
2022/03/08 07:19:13;;;;;;;11.00;6.60;;;2.80;99.90;;;;;;5070272;28;20878;-63
2022/03/08 07:21:42;;;;;;;7.10;5.63;;;2.80;99.90;;;;;;5070426;28;20937;-63
2022/03/08 07:24:08;;;;;;;13.00;5.73;;;2.90;99.90;;;;;;5070388;28;20425;-63
2022/03/08 07:26:35;;;;;;;7.70;5.60;;;2.90;99.90;;;;;;5069926;28;20447;-63
2022/03/08 07:29:01;;;;;;;9.00;5.60;;;3.00;99.90;;;;;;5070035;28;20475;-63
2022/03/08 07:31:27;;;;;;;9.77;6.33;;;3.00;99.90;;;;;;5070316;28;20551;-63
2022/03/08 07:33:52;;;;;;;9.37;5.40;;;3.10;99.90;;;;;;5070188;28;20257;-63
2022/03/08 07:36:18;;;;;;;7.87;5.53;;;3.10;99.90;;;;;;5070127;28;20203;-64
2022/03/08 07:38:44;;;;;;;8.10;5.70;;;3.20;99.90;;;;;;5071421;28;20176;-64
2022/03/08 07:41:10;;;;;;;6.27;5.43;;;3.30;99.90;;;;;;5074174;28;20423;-63
2022/03/08 07:43:36;;;;;;;8.30;5.00;;;3.30;99.90;;;;;;5073959;28;20651;-64
2022/03/08 07:46:04;;;;;;;7.90;5.70;;;3.40;99.90;;;;;;5073759;28;20208;-63
2022/03/08 07:48:30;;;;;;;7.97;5.47;;;3.50;99.90;;;;;;5073664;28;20211;-63
2022/03/08 07:50:55;;;;;;;7.23;5.67;;;3.50;99.90;;;;;;5073729;28;20414;-63
2022/03/08 07:53:21;;;;;;;7.80;5.00;;;3.60;99.90;;;;;;5073810;28;20423;-63
2022/03/08 07:55:47;;;;;;;7.53;5.60;;;3.60;99.90;;;;;;5073528;28;20183;-64
2022/03/08 07:58:14;;;;;;;9.93;6.10;;;3.80;99.90;;;;;;5073428;28;20184;-63
2022/03/08 08:00:41;;;;;;;8.20;5.60;;;3.90;99.90;;;;;;5073442;28;20472;-64
2022/03/08 08:03:08;;;;;;;9.30;6.40;;;4.00;99.90;;;;;;5073584;28;20469;-63
2022/03/08 08:05:35;;;;;;;8.53;5.70;;;4.00;99.90;;;;;;5073708;28;20978;-64
2022/03/08 08:08:02;;;;;;;9.83;6.07;;;4.10;99.90;;;;;;5073112;28;20459;-63
2022/03/08 08:10:28;;;;;;;10.47;5.47;;;4.20;99.90;;;;;;5073339;28;20411;-64
2022/03/08 08:12:54;;;;;;;8.60;5.37;;;4.20;99.90;;;;;;5073259;28;20417;-64
2022/03/08 08:15:19;;;;;;;6.53;5.20;;;4.30;99.90;;;;;;5073337;28;21057;-64
2022/03/08 08:17:45;;;;;;;10.47;5.50;;;4.40;99.90;;;;;;5072829;28;20698;-63
2022/03/08 08:20:11;;;;;;;7.23;5.90;;;4.40;99.90;;;;;;5073194;28;20266;-63
2022/03/08 08:22:38;;;;;;;7.10;5.80;;;4.50;99.90;;;;;;5073227;28;20185;-64
2022/03/08 08:25:08;;;;;;;8.70;6.40;;;4.60;99.90;;;;;;5073157;28;20771;-63
2022/03/08 08:27:34;;;;;;;6.50;5.00;;;4.70;99.90;;;;;;5072714;28;20477;-64
2022/03/08 08:30:00;;;;;;;11.10;5.70;;;4.80;99.90;;;;;;5073137;28;20417;-64
2022/03/08 08:32:29;;;;;;;7.30;5.70;;;4.90;99.90;;;;;;5073027;28;20707;-64
2022/03/08 08:34:54;;;;;;;8.17;5.50;;;5.00;99.90;;;;;;5072581;28;20527;-64
2022/03/08 08:37:20;;;;;;;11.93;6.20;;;5.10;99.90;;;;;;5072473;28;20490;-64
2022/03/08 08:39:46;;;;;;;6.63;5.80;;;5.20;99.90;;;;;;5072817;28;20410;-64
2022/03/08 08:42:12;;;;;;;7.60;5.23;;;5.30;99.90;;;;;;5072825;28;20196;-64
2022/03/08 08:44:38;;;;;;;8.80;5.43;;;5.40;99.90;;;;;;5072809;28;20265;-64
2022/03/08 08:47:04;;;;;;;8.43;5.53;;;5.50;99.90;;;;;;5072370;28;20764;-64
2022/03/08 08:49:30;;;;;;;8.17;4.97;;;5.50;99.80;;;;;;5072147;28;20179;-64
2022/03/08 08:51:56;;;;;;;5.97;5.27;;;5.60;99.20;;;;;;5072734;28;20951;-64
2022/03/08 08:54:23;;;;;;;7.40;5.63;;;5.60;98.70;;;;;;5072540;28;21082;-64
2022/03/08 08:56:48;;;;;;;7.80;5.87;;;5.80;98.90;;;;;;5072460;28;20453;-64
2022/03/08 08:59:15;;;;;;;7.00;6.03;;;5.90;97.90;;;;;;5083827;28;20441;-64
2022/03/08 09:01:40;;;;;;;8.00;5.90;;;6.00;98.10;;;;;;5072079;28;20437;-64
2022/03/08 09:04:06;;;;;;;8.00;6.13;;;6.10;98.20;;;;;;5072343;28;20418;-64
2022/03/08 09:06:32;;;;;;;7.27;5.20;;;6.30;97.30;;;;;;5071793;28;20441;-64
2022/03/08 09:08:59;;;;;;;6.90;5.50;;;6.40;96.80;;;;;;5072135;28;20216;-64
2022/03/08 09:11:25;;;;;;;8.47;5.40;;;6.50;96.70;;;;;;5072216;28;20204;-64
2022/03/08 09:13:51;;;;;;;8.00;5.70;;;6.60;96.20;;;;;;5072356;28;20429;-64
2022/03/08 09:16:17;;;;;;;8.10;5.63;;;6.70;94.50;;;;;;5071975;28;20881;-63
2022/03/08 09:18:43;;;;;;;8.23;6.43;;;6.70;94.50;;;;;;5072012;28;20420;-65
2022/03/08 09:21:10;;;;;;;10.17;5.40;;;6.80;93.60;;;;;;5072240;28;20447;-65
2022/03/08 09:23:37;;;;;;;7.50;5.40;;;6.90;94.10;;;;;;5072014;28;20484;-64
2022/03/08 09:26:03;;;;;;;7.03;5.23;;;7.00;92.30;;;;;;5072002;28;20437;-64
2022/03/08 09:28:29;;;;;;;7.10;5.30;;;7.00;92.00;;;;;;5071650;28;20453;-64
2022/03/08 09:31:01;;;;;;;7.10;5.13;;;7.00;90.80;;;;;;5072048;28;20418;-64
2022/03/08 09:33:28;;;;;;;7.97;5.07;;;7.10;91.20;;;;;;5071968;28;20937;-64
2022/03/08 09:35:54;;;;;;;6.93;5.30;;;7.30;91.80;;;;;;5071723;28;20431;-64
2022/03/08 09:38:20;;;;;;;5.90;4.93;;;7.40;90.80;;;;;;5071629;28;20424;-64
2022/03/08 09:40:47;;;;;;;6.60;5.20;;;7.50;90.70;;;;;;5071790;28;20428;-64
2022/03/08 09:43:15;;;;;;;6.97;5.10;;;7.60;87.40;;;;;;5071654;28;20847;-64
2022/03/08 09:45:41;;;;;;;6.80;5.00;;;7.70;86.40;;;;;;5071593;28;20424;-64
2022/03/08 09:48:07;;;;;;;6.60;5.17;;;7.80;86.80;;;;;;5071342;28;20476;-63
2022/03/08 09:50:33;;;;;;;5.37;4.57;;;7.90;85.50;;;;;;5071372;28;20417;-65
2022/03/08 09:52:58;;;;;;;6.93;4.60;;;8.00;83.50;;;;;;5071593;28;20647;-65
2022/03/08 09:55:25;;;;;;;7.10;5.00;;;8.10;82.60;;;;;;5071345;28;20194;-64
2022/03/08 09:57:52;;;;;;;7.43;4.93;;;8.20;81.10;;;;;;5071144;28;20212;-64
2022/03/08 10:00:19;;;;;;;6.90;4.90;;;8.20;79.20;;;;;;5070957;28;20470;-65
2022/03/08 10:02:51;;;;;;;6.30;5.07;;;8.40;78.30;;;;;;5070871;28;20814;-65
2022/03/08 10:05:25;;;;;;;5.90;4.50;;;8.50;76.30;;;;;;5071024;28;20424;-65
2022/03/08 10:08:04;;;;;;;6.17;4.47;;;8.70;73.20;;;;;;5070891;28;20477;-64
2022/03/08 10:10:32;;;;;;;5.13;4.33;;;8.70;74.20;;;;;;5071065;28;20423;-65
2022/03/08 10:12:58;;;;;;;5.60;4.50;;;9.00;74.50;;;;;;5071185;28;20417;-64
2022/03/08 10:15:24;;;;;;;6.40;4.63;;;9.30;73.40;;;;;;5070836;28;20417;-64
2022/03/08 10:17:50;;;;;;;6.30;4.80;;;9.80;69.20;;;;;;5070703;28;20911;-64
2022/03/08 10:20:29;;;;;;;10.50;4.97;;;11.70;66.90;;;;;;5070980;28;20421;-64
2022/03/08 10:22:54;;;;;;;7.00;5.00;;;14.10;57.50;;;;;;5070981;28;20187;-64
2022/03/08 10:25:24;;;;;;;7.50;5.20;;;15.50;51.40;;;;;;5070825;28;20413;-64
2022/03/08 10:27:56;;;;;;;7.40;4.97;;;17.60;47.90;;;;;;5070669;28;20206;-65
2022/03/08 10:30:23;;;;;;;6.17;4.97;;;19.80;41.70;;;;;;5070826;28;20932;-65
2022/03/08 10:32:51;;;;;;;8.70;4.77;;;21.20;39.40;;;;;;5070711;28;20414;-64
2022/03/08 10:35:28;;;;;;;4.90;4.37;;;22.60;34.30;;;;;;5070310;28;20444;-65
2022/03/08 10:38:00;;;;;;;6.93;5.27;;;22.70;31.50;;;;;;5078952;28;20452;-65
2022/03/08 10:40:33;;;;;;;5.53;4.40;;;22.50;30.70;;;;;;5089114;28;20440;-65
2022/03/08 10:43:03;;;;;;;7.00;4.93;;;22.60;30.50;;;;;;5090590;28;20429;-65
2022/03/08 10:45:31;;;;;;;6.20;4.03;;;22.90;30.00;;;;;;5090145;28;20877;-65
2022/03/08 10:47:58;;;;;;;5.30;4.60;;;23.40;29.10;;;;;;5090344;28;20543;-65
2022/03/08 10:50:31;;;;;;;6.17;5.50;;;22.70;27.90;;;;;;5090106;28;20424;-65
2022/03/08 10:52:58;;;;;;;6.27;4.60;;;23.40;28.30;;;;;;5090374;28;20474;-65
2022/03/08 10:55:29;;;;;;;5.73;4.40;;;23.70;27.00;;;;;;5090376;28;20427;-65
2022/03/08 10:57:56;;;;;;;6.83;4.53;;;23.50;26.80;;;;;;5090179;28;20440;-65
2022/03/08 11:00:25;;;;;;;4.53;4.13;;;23.40;27.10;;;;;;5090218;28;20494;-64
2022/03/08 11:02:57;;;;;;;8.57;5.27;;;24.70;26.90;;;;;;5090500;28;20452;-65
2022/03/08 11:05:26;;;;;;;4.93;4.40;;;25.00;25.90;;;;;;5090188;28;20842;-65
2022/03/08 11:07:53;;;;;;;5.13;4.43;;;24.70;25.90;;;;;;5089964;28;20493;-64
2022/03/08 11:10:20;;;;;;;5.97;4.63;;;24.00;25.50;;;;;;5090147;28;20802;-64
2022/03/08 11:12:46;;;;;;;5.20;4.40;;;23.50;26.10;;;;;;5091741;28;20832;-65
2022/03/08 11:15:16;;;;;;;4.90;4.00;;;23.80;26.20;;;;;;5094306;28;20801;-65
2022/03/08 11:17:44;;;;;;;6.30;5.00;;;22.90;25.60;;;;;;5094408;28;20436;-64
2022/03/08 11:20:11;;;;;;;5.17;4.30;;;22.70;26.00;;;;;;5094053;28;20762;-65
2022/03/08 11:22:38;;;;;;;6.80;4.90;;;23.40;26.30;;;;;;5094254;28;20512;-65
2022/03/08 11:25:07;;;;;;;5.57;5.00;;;23.00;26.00;;;;;;5087494;28;20634;-64
2022/03/08 11:27:35;;;;;;;6.00;4.87;;;23.90;26.30;;;;;;5086519;28;21051;-64
2022/03/08 11:30:02;;;;;;;5.93;4.90;;;25.40;25.90;;;;;;5084669;28;20844;-64
2022/03/08 11:32:37;;;;;;;5.67;5.00;;;25.70;25.00;;;;;;5085562;28;20430;-64
2022/03/08 11:35:47;;;;;;;4.90;4.40;;;24.70;24.50;;;;;;5094352;28;20424;-64
2022/03/08 11:38:14;;;;;;;6.97;4.47;;;23.10;25.20;;;;;;5094084;28;20427;-65
2022/03/08 11:40:51;;;;;;;5.50;4.93;;;21.80;25.50;;;;;;5092462;28;20469;-64
2022/03/08 11:43:17;;;;;;;8.83;5.80;;;21.20;26.30;;;;;;5094013;28;20899;-64
2022/03/08 11:45:43;;;;;;;5.93;4.73;;;21.20;26.50;;;;;;5093548;28;20428;-64
2022/03/08 11:48:10;;;;;;;7.03;5.60;;;21.20;26.70;;;;;;5093672;28;20983;-65
2022/03/08 11:50:44;;;;;;;5.40;4.90;;;21.20;26.50;;;;;;5093705;28;20412;-65
2022/03/08 11:53:16;;;;;;;6.33;4.63;;;22.10;26.80;;;;;;5093837;28;20442;-65
2022/03/08 11:55:47;;;;;;;6.20;4.60;;;22.70;26.70;;;;;;5093655;28;20519;-64
2022/03/08 11:58:15;;;;;;;7.73;5.10;;;22.10;26.10;;;;;;5093610;28;20420;-64
2022/03/08 12:00:58;;;;;;;5.37;4.80;;;22.50;26.70;;;;;;5093550;28;20444;-65
2022/03/08 12:03:24;;;;;;;6.87;5.27;;;23.60;26.00;;;;;;5090044;28;20439;-65
2022/03/08 12:06:10;;;;;;;6.73;5.70;;;24.20;25.70;;;;;;5092630;28;20420;-64
2022/03/08 12:08:44;;;;;;;6.83;5.70;;;24.40;25.60;;;;;;5093128;28;20293;-65
2022/03/08 12:11:16;;;;;;;6.97;5.40;;;24.00;25.00;;;;;;5087024;28;20424;-64
2022/03/08 12:13:44;;;;;;;6.23;5.63;;;24.30;25.40;;;;;;5113817;23;20581;-81
2022/03/08 12:16:09;;;;;;;7.37;4.60;;;23.60;25.20;;;;;;5101058;28;20424;-81
2022/03/08 12:18:53;;;;;;;6.50;5.50;;;21.70;25.60;;;;;;5095306;28;20777;-81
2022/03/08 12:21:21;;;;;;;11.97;5.40;;;20.90;26.40;;;;;;5095204;28;20189;-81
2022/03/08 12:23:56;;;;;;;7.13;5.77;;;20.50;26.80;;;;;;5094811;28;20436;-81
2022/03/08 12:26:27;;;;;;;6.90;5.77;;;19.60;27.30;;;;;;5094087;28;20430;-81
2022/03/08 12:29:13;;;;;;;6.00;5.20;;;18.50;27.40;;;;;;5095541;28;20501;-81
2022/03/08 12:32:01;;;;;;;7.50;5.17;;;18.70;27.90;;;;;;5095430;28;20410;-80
2022/03/08 12:34:33;;;;;;;5.67;4.63;;;18.50;28.50;;;;;;5095563;28;20412;-81
2022/03/08 12:37:06;;;;;;;6.80;5.53;;;18.30;28.70;;;;;;5094424;28;20440;-81
2022/03/08 12:39:49;;;;;;;6.40;5.20;;;19.10;28.40;;;;;;5095333;28;20461;-81
2022/03/08 12:42:38;;;;;;;6.50;5.73;;;19.60;27.80;;;;;;5094912;28;20424;-81
2022/03/08 12:45:08;;;;;;;6.63;5.60;;;19.90;28.10;;;;;;5095098;28;20733;-81
2022/03/08 12:47:48;;;;;;;7.77;4.83;;;20.70;27.70;;;;;;5094300;28;20459;-81
2022/03/08 12:50:23;;;;;;;6.07;5.13;;;22.20;26.80;;;;;;5095023;28;20461;-82
2022/03/08 12:52:53;;;;;;;8.23;5.70;;;23.60;26.50;;;;;;5094509;28;20481;-83
2022/03/08 12:55:34;;;;;;;6.90;6.20;;;24.70;26.30;;;;;;5094600;28;20397;-83
2022/03/08 12:58:03;;;;;;;8.90;5.57;;;25.90;25.00;;;;;;5092665;28;20404;-83